createdAt,value
2018-01-06T00:01:41.127Z,4.40
2018-01-06T00:04:08.638Z,4.90
2018-01-06T00:06:36.131Z,4.80
2018-01-06T00:09:03.610Z,5.10
2018-01-06T00:11:32.579Z,4.77
2018-01-06T00:14:00.091Z,4.20
2018-01-06T00:16:27.558Z,4.67
2018-01-06T00:18:55.378Z,4.43
2018-01-06T00:21:23.192Z,4.90
2018-01-06T00:23:50.703Z,4.50
2018-01-06T00:26:18.497Z,5.40
2018-01-06T00:28:46.297Z,3.80
2018-01-06T00:31:13.887Z,4.00
2018-01-06T00:33:42.194Z,3.10
2018-01-06T00:36:10.548Z,3.37
2018-01-06T00:38:38.791Z,3.80
2018-01-06T00:41:06.548Z,3.57
2018-01-06T00:43:34.445Z,3.90
2018-01-06T00:46:02.002Z,4.13
2018-01-06T00:48:29.790Z,5.03
2018-01-06T00:50:57.258Z,4.60
2018-01-06T00:53:25.669Z,4.40
2018-01-06T00:55:53.243Z,4.60
2018-01-06T00:58:20.875Z,4.63
2018-01-06T01:00:49.224Z,4.17
2018-01-06T01:03:16.704Z,4.57
2018-01-06T01:05:44.972Z,3.77
2018-01-06T01:08:12.701Z,4.07
2018-01-06T01:10:40.150Z,3.97
2018-01-06T01:13:07.617Z,3.83
2018-01-06T01:15:35.136Z,3.73
2018-01-06T01:18:02.781Z,3.13
2018-01-06T01:20:30.236Z,4.37
2018-01-06T01:22:58.524Z,3.60
2018-01-06T01:25:26.833Z,3.97
2018-01-06T01:27:54.490Z,4.70
2018-01-06T01:30:21.971Z,3.20
2018-01-06T01:32:49.876Z,4.20
2018-01-06T01:35:17.381Z,3.70
2018-01-06T01:37:45.948Z,3.60
2018-01-06T01:40:13.517Z,4.37
2018-01-06T01:42:41.028Z,4.37
2018-01-06T01:45:08.506Z,3.93
2018-01-06T01:47:36.440Z,4.33
2018-01-06T01:50:04.042Z,3.90
2018-01-06T01:52:32.276Z,3.60
2018-01-06T01:54:59.753Z,4.10
2018-01-06T01:57:27.240Z,3.70
2018-01-06T01:59:54.813Z,4.10
2018-01-06T02:02:22.314Z,3.27
2018-01-06T02:04:49.808Z,3.90
2018-01-06T02:07:17.275Z,3.00
2018-01-06T02:09:45.515Z,3.60
2018-01-06T02:12:13.371Z,4.00
2018-01-06T02:14:40.847Z,3.90
2018-01-06T02:17:08.318Z,3.47
2018-01-06T02:19:35.832Z,3.67
2018-01-06T02:22:03.293Z,4.10
2018-01-06T02:24:30.782Z,2.57
2018-01-06T02:26:58.271Z,2.77
2018-01-06T02:29:25.733Z,2.80
2018-01-06T02:31:53.195Z,3.47
2018-01-06T02:34:20.750Z,3.10
2018-01-06T02:36:49.006Z,3.07
2018-01-06T02:39:16.475Z,4.00
2018-01-06T02:41:44.711Z,3.70
2018-01-06T02:44:12.195Z,4.07
2018-01-06T02:46:39.662Z,3.63
2018-01-06T02:49:07.138Z,3.80
2018-01-06T02:51:34.603Z,4.83
2018-01-06T02:54:02.095Z,4.73
2018-01-06T02:56:29.560Z,4.70
2018-01-06T02:58:57.030Z,5.50
2018-01-06T03:01:24.514Z,6.13
2018-01-06T03:03:51.965Z,5.13
2018-01-06T03:06:19.432Z,5.03
2018-01-06T03:08:47.665Z,4.33
2018-01-06T03:11:15.299Z,4.00
2018-01-06T03:13:42.758Z,4.00
2018-01-06T03:16:10.226Z,4.80
2018-01-06T03:18:37.700Z,4.03
2018-01-06T03:21:05.256Z,3.47
2018-01-06T03:23:32.717Z,4.00
2018-01-06T03:26:00.207Z,3.80
2018-01-06T03:28:28.627Z,4.20
2018-01-06T03:30:56.099Z,3.60
2018-01-06T03:33:23.582Z,3.80
2018-01-06T03:35:51.056Z,3.93
2018-01-06T03:38:18.554Z,4.83
2018-01-06T03:40:46.782Z,3.60
2018-01-06T03:43:14.320Z,4.47
2018-01-06T03:45:41.794Z,3.80
2018-01-06T03:48:09.366Z,4.27
2018-01-06T03:50:36.844Z,5.00
2018-01-06T03:53:04.334Z,3.13
2018-01-06T03:55:31.795Z,3.63
2018-01-06T03:57:59.304Z,4.40
2018-01-06T04:00:26.772Z,5.43
2018-01-06T04:02:54.296Z,4.00
2018-01-06T04:05:21.802Z,5.77
2018-01-06T04:07:49.320Z,3.90
2018-01-06T04:10:17.973Z,4.23
2018-01-06T04:12:45.468Z,4.63
2018-01-06T04:15:12.957Z,4.53
2018-01-06T04:17:40.444Z,3.77
2018-01-06T04:20:07.929Z,4.63
2018-01-06T04:22:35.490Z,3.57
2018-01-06T04:25:03.006Z,5.93
2018-01-06T04:27:31.257Z,9.50
2018-01-06T04:29:58.757Z,12.83
2018-01-06T04:32:26.231Z,9.97
2018-01-06T04:34:53.702Z,4.60
2018-01-06T04:37:21.164Z,5.33
2018-01-06T04:39:48.645Z,12.07
2018-01-06T04:42:16.130Z,8.97
2018-01-06T04:44:44.367Z,6.97
2018-01-06T04:47:11.848Z,5.93
2018-01-06T04:49:39.359Z,4.40
2018-01-06T04:52:06.828Z,4.77
2018-01-06T04:54:34.294Z,4.93
2018-01-06T04:57:01.789Z,4.60
2018-01-06T04:59:29.238Z,5.57
2018-01-06T05:01:56.705Z,5.00
2018-01-06T05:04:24.190Z,4.70
2018-01-06T05:06:51.657Z,4.80
2018-01-06T05:09:19.177Z,4.27
2018-01-06T05:11:46.652Z,4.83
2018-01-06T05:14:14.916Z,5.43
2018-01-06T05:16:42.382Z,5.07
2018-01-06T05:19:09.858Z,4.50
2018-01-06T05:21:37.311Z,6.40
2018-01-06T05:24:05.538Z,6.90
2018-01-06T05:26:33.005Z,8.70
2018-01-06T05:29:00.563Z,11.13
2018-01-06T05:31:28.009Z,8.07
2018-01-06T05:33:55.484Z,13.90
2018-01-06T05:36:22.980Z,13.93
2018-01-06T05:38:51.215Z,20.90
2018-01-06T05:41:18.704Z,15.93
2018-01-06T05:43:46.960Z,11.23
2018-01-06T05:46:14.469Z,9.73
2018-01-06T05:48:41.963Z,5.90
2018-01-06T05:51:09.482Z,6.50
2018-01-06T05:53:36.961Z,6.47
2018-01-06T05:56:04.429Z,6.30
2018-01-06T05:58:31.913Z,9.23
2018-01-06T06:00:59.420Z,10.10
2018-01-06T06:03:26.919Z,7.20
2018-01-06T06:05:55.183Z,5.20
2018-01-06T06:08:22.648Z,5.53
2018-01-06T06:10:50.110Z,6.70
2018-01-06T06:13:17.612Z,6.00
2018-01-06T06:15:45.849Z,5.97
2018-01-06T06:18:13.318Z,6.50
2018-01-06T06:20:40.796Z,6.37
2018-01-06T06:23:09.080Z,5.60
2018-01-06T06:25:36.574Z,6.33
2018-01-06T06:28:04.114Z,6.73
2018-01-06T06:30:31.593Z,7.17
2018-01-06T06:32:59.349Z,7.70
2018-01-06T06:35:26.850Z,7.07
2018-01-06T06:37:54.334Z,7.23
2018-01-06T06:40:22.586Z,8.33
2018-01-06T06:42:50.045Z,8.23
2018-01-06T06:45:17.512Z,6.47
2018-01-06T06:47:46.046Z,6.70
2018-01-06T06:50:13.524Z,6.73
2018-01-06T06:52:40.993Z,6.43
2018-01-06T06:55:08.482Z,6.97
2018-01-06T06:57:36.710Z,7.87
2018-01-06T07:00:04.354Z,7.97
2018-01-06T07:02:31.819Z,7.97
2018-01-06T07:04:59.283Z,7.30
2018-01-06T07:07:26.765Z,8.43
2018-01-06T07:09:54.246Z,9.20
2018-01-06T07:12:21.710Z,8.10
2018-01-06T07:14:49.986Z,9.40
2018-01-06T07:17:17.466Z,9.40
2018-01-06T07:19:45.038Z,8.63
2018-01-06T07:22:12.507Z,9.73
2018-01-06T07:24:40.026Z,8.43
2018-01-06T07:27:07.492Z,8.60
2018-01-06T07:29:35.745Z,8.10
2018-01-06T07:32:03.996Z,8.50
2018-01-06T07:34:31.482Z,9.90
2018-01-06T07:36:58.957Z,10.03
2018-01-06T07:39:27.206Z,10.10
2018-01-06T07:41:54.747Z,8.87
2018-01-06T07:44:22.234Z,9.67
2018-01-06T07:46:49.725Z,10.53
2018-01-06T07:49:17.203Z,10.67
2018-01-06T07:51:44.715Z,10.13
2018-01-06T07:54:12.203Z,9.67
2018-01-06T07:56:40.650Z,10.03
2018-01-06T07:59:08.134Z,11.63
2018-01-06T08:01:36.396Z,12.20
2018-01-06T08:04:03.871Z,10.63
2018-01-06T08:06:31.413Z,11.50
2018-01-06T08:08:59.704Z,12.30
2018-01-06T08:11:27.942Z,10.27
2018-01-06T08:13:55.427Z,10.60
2018-01-06T08:16:22.893Z,10.47
2018-01-06T08:18:51.135Z,11.90
2018-01-06T08:21:18.626Z,11.37
2018-01-06T08:23:46.853Z,11.90
2018-01-06T08:26:14.386Z,10.20
2018-01-06T08:28:41.855Z,11.60
2018-01-06T08:31:09.335Z,11.47
2018-01-06T08:33:36.815Z,12.50
2018-01-06T08:36:04.360Z,12.40
2018-01-06T08:38:31.898Z,11.80
2018-01-06T08:40:59.396Z,15.77
2018-01-06T08:43:26.880Z,15.50
2018-01-06T08:45:55.164Z,19.00
2018-01-06T08:48:23.909Z,21.50
2018-01-06T08:50:51.431Z,21.23
2018-01-06T08:53:18.930Z,20.30
2018-01-06T08:55:46.732Z,18.57
2018-01-06T08:58:15.038Z,19.30
2018-01-06T09:00:42.525Z,17.40
2018-01-06T09:03:10.031Z,18.70
2018-01-06T09:05:38.285Z,16.73
2018-01-06T09:08:07.262Z,17.97
2018-01-06T09:10:34.871Z,17.93
2018-01-06T09:13:02.337Z,23.77
2018-01-06T09:15:29.850Z,21.13
2018-01-06T09:17:57.320Z,19.93
2018-01-06T09:20:24.837Z,20.27
2018-01-06T09:22:52.307Z,19.00
2018-01-06T09:25:19.829Z,17.40
2018-01-06T09:27:47.296Z,17.70
2018-01-06T09:30:14.826Z,15.40
2018-01-06T09:32:42.313Z,17.10
2018-01-06T09:35:09.809Z,15.80
2018-01-06T09:37:38.314Z,16.33
2018-01-06T09:40:05.782Z,18.40
2018-01-06T09:42:33.287Z,16.63
2018-01-06T09:45:00.766Z,18.27
2018-01-06T09:47:28.251Z,15.33
2018-01-06T09:49:55.762Z,14.20
2018-01-06T09:52:23.270Z,12.67
2018-01-06T09:54:51.540Z,15.03
2018-01-06T09:57:19.043Z,12.60
2018-01-06T09:59:47.039Z,12.70
2018-01-06T10:02:14.528Z,14.97
2018-01-06T10:04:42.059Z,13.30
2018-01-06T10:07:09.539Z,13.13
2018-01-06T10:09:37.044Z,13.37
2018-01-06T10:12:04.553Z,13.80
2018-01-06T10:14:32.046Z,15.07
2018-01-06T10:16:59.613Z,12.50
2018-01-06T10:19:27.095Z,14.33
2018-01-06T10:21:54.586Z,12.77
2018-01-06T10:24:22.123Z,14.20
2018-01-06T10:26:50.246Z,12.40
2018-01-06T10:29:17.710Z,12.73
2018-01-06T10:31:46.196Z,12.77
2018-01-06T10:34:13.666Z,14.53
2018-01-06T10:36:41.156Z,16.60
2018-01-06T10:39:08.698Z,14.60
2018-01-06T10:41:36.604Z,14.50
2018-01-06T10:44:04.380Z,12.93
2018-01-06T10:46:32.721Z,13.00
2018-01-06T10:49:00.274Z,13.57
2018-01-06T10:51:27.717Z,12.87
2018-01-06T10:53:55.311Z,11.53
2018-01-06T10:56:22.785Z,14.20
2018-01-06T10:58:51.075Z,14.30
2018-01-06T11:01:24.225Z,13.20
2018-01-06T11:03:51.687Z,13.57
2018-01-06T11:06:19.228Z,13.30
2018-01-06T11:08:46.702Z,14.03
2018-01-06T11:11:14.185Z,14.10
2018-01-06T11:13:41.662Z,12.40
2018-01-06T11:16:09.129Z,19.07
2018-01-06T11:18:37.378Z,13.23
2018-01-06T11:21:04.909Z,16.67
2018-01-06T11:23:32.380Z,15.50
2018-01-06T11:26:00.286Z,12.70
2018-01-06T11:28:28.651Z,13.67
2018-01-06T11:30:56.135Z,10.83
2018-01-06T11:33:24.753Z,11.13
2018-01-06T11:35:52.273Z,11.87
2018-01-06T11:38:19.753Z,12.03
2018-01-06T11:40:48.014Z,12.47
2018-01-06T11:43:15.506Z,12.50
2018-01-06T11:45:43.287Z,12.93
2018-01-06T11:48:10.758Z,12.67
2018-01-06T11:50:38.644Z,13.13
2018-01-06T11:53:06.110Z,13.93
2018-01-06T11:55:33.667Z,15.10
2018-01-06T11:58:01.141Z,15.13
2018-01-06T12:00:29.410Z,14.70
2018-01-06T12:02:56.857Z,17.77
2018-01-06T12:05:24.436Z,16.40
2018-01-06T12:07:53.564Z,16.80
2018-01-06T12:10:21.031Z,17.80
2018-01-06T12:12:48.498Z,17.40
2018-01-06T12:15:15.981Z,18.90
2018-01-06T12:17:43.555Z,19.77
2018-01-06T12:20:11.060Z,14.53
2018-01-06T12:22:38.563Z,16.57
2018-01-06T12:25:06.042Z,17.50
2018-01-06T12:27:34.311Z,16.83
2018-01-06T12:30:01.803Z,18.37
2018-01-06T12:32:29.278Z,17.37
2018-01-06T12:34:56.817Z,17.00
2018-01-06T12:37:24.273Z,16.70
2018-01-06T12:39:52.590Z,19.10
2018-01-06T12:42:20.063Z,14.73
2018-01-06T12:44:47.522Z,16.50
2018-01-06T12:47:15.022Z,17.80
2018-01-06T12:49:42.562Z,15.67
2018-01-06T12:52:10.045Z,14.50
2018-01-06T12:54:37.553Z,11.20
2018-01-06T12:57:05.052Z,10.83
2018-01-06T12:59:33.308Z,12.67
2018-01-06T13:02:00.779Z,14.03
2018-01-06T13:04:28.243Z,13.40
2018-01-06T13:06:56.502Z,15.80
2018-01-06T13:09:23.986Z,14.13
2018-01-06T13:11:52.238Z,11.23
2018-01-06T13:14:20.498Z,11.10
2018-01-06T13:16:47.966Z,10.97
2018-01-06T13:19:15.514Z,9.30
2018-01-06T13:21:42.987Z,10.00
2018-01-06T13:24:10.508Z,8.30
2018-01-06T13:26:37.992Z,8.37
2018-01-06T13:29:05.479Z,8.00
2018-01-06T13:31:33.740Z,8.97
2018-01-06T13:34:01.235Z,8.60
2018-01-06T13:36:28.711Z,7.43
2018-01-06T13:38:56.199Z,8.70
2018-01-06T13:41:23.676Z,7.60
2018-01-06T13:43:51.139Z,7.87
2018-01-06T13:46:18.627Z,7.80
2018-01-06T13:48:46.128Z,8.70
2018-01-06T13:51:13.993Z,8.50
2018-01-06T13:53:41.475Z,7.70
2018-01-06T13:56:08.977Z,7.80
2018-01-06T13:58:36.455Z,9.13
2018-01-06T14:01:03.930Z,7.23
2018-01-06T14:03:31.430Z,6.50
2018-01-06T14:05:59.683Z,6.60
2018-01-06T14:08:27.136Z,6.60
2018-01-06T14:10:54.886Z,7.43
2018-01-06T14:13:22.368Z,8.80
2018-01-06T14:15:49.918Z,6.50
2018-01-06T14:18:17.427Z,7.80
2018-01-06T14:20:45.660Z,7.27
2018-01-06T14:23:13.140Z,6.27
2018-01-06T14:25:41.371Z,5.90
2018-01-06T14:28:08.843Z,5.60
2018-01-06T14:30:36.590Z,5.83
2018-01-06T14:33:04.082Z,6.43
2018-01-06T14:35:31.594Z,7.80
2018-01-06T14:37:59.083Z,7.40
2018-01-06T14:40:26.556Z,7.83
2018-01-06T14:42:54.012Z,7.60
2018-01-06T14:45:21.534Z,8.10
2018-01-06T14:47:49.019Z,9.27
2018-01-06T14:50:16.821Z,8.80
2018-01-06T14:52:45.102Z,9.23
2018-01-06T14:55:13.344Z,8.83
2018-01-06T14:57:40.911Z,9.00
2018-01-06T15:00:08.391Z,8.37
2018-01-06T15:02:35.868Z,9.20
2018-01-06T15:05:03.360Z,8.63
2018-01-06T15:07:31.167Z,10.40
2018-01-06T15:09:58.660Z,9.63
2018-01-06T15:12:26.132Z,9.10
2018-01-06T15:14:53.607Z,9.00
2018-01-06T15:17:21.109Z,9.30
2018-01-06T15:19:48.603Z,12.17
2018-01-06T15:22:16.096Z,10.80
2018-01-06T15:24:43.569Z,11.67
2018-01-06T15:27:11.034Z,11.03
2018-01-06T15:29:38.531Z,11.43
2018-01-06T15:32:06.049Z,12.03
2018-01-06T15:34:33.525Z,13.17
2018-01-06T15:37:01.791Z,13.20
2018-01-06T15:39:29.277Z,13.70
2018-01-06T15:41:56.787Z,14.00
2018-01-06T15:44:25.083Z,13.57
2018-01-06T15:46:52.570Z,15.30
2018-01-06T15:49:20.081Z,12.40
2018-01-06T15:51:47.561Z,15.60
2018-01-06T15:54:15.119Z,14.53
2018-01-06T15:56:42.677Z,13.73
2018-01-06T15:59:10.526Z,13.10
2018-01-06T16:01:37.993Z,45.23
2018-01-06T16:04:05.486Z,18.67
2018-01-06T16:06:33.719Z,16.87
2018-01-06T16:09:01.190Z,13.80
2018-01-06T16:11:28.674Z,15.33
2018-01-06T16:13:56.543Z,14.13
2018-01-06T16:16:24.896Z,17.53
2018-01-06T16:18:52.498Z,14.60
2018-01-06T16:21:21.049Z,15.13
2018-01-06T16:23:48.553Z,15.10
2018-01-06T16:26:16.042Z,14.80
2018-01-06T16:28:43.521Z,15.67
2018-01-06T16:31:11.029Z,16.50
2018-01-06T16:33:38.607Z,15.50
2018-01-06T16:36:06.147Z,15.83
2018-01-06T16:38:33.630Z,13.83
2018-01-06T16:41:01.119Z,14.90
2018-01-06T16:43:28.623Z,15.10
2018-01-06T16:45:56.238Z,13.23
2018-01-06T16:48:23.766Z,15.27
2018-01-06T16:50:51.246Z,14.10
2018-01-06T16:53:18.724Z,14.27
2018-01-06T16:55:46.954Z,12.90
2018-01-06T16:58:14.453Z,14.60
2018-01-06T17:00:43.139Z,12.63
2018-01-06T17:03:10.637Z,14.80
2018-01-06T17:05:38.115Z,14.17
2018-01-06T17:08:05.629Z,16.53
2018-01-06T17:10:33.867Z,16.03
2018-01-06T17:13:02.294Z,18.30
2018-01-06T17:15:31.880Z,17.30
2018-01-06T17:17:59.348Z,17.03
2018-01-06T17:20:29.206Z,18.67
2018-01-06T17:22:58.167Z,20.07
2018-01-06T17:25:26.298Z,18.70
2018-01-06T17:27:56.585Z,17.13
2018-01-06T17:30:37.823Z,15.80
2018-01-06T17:33:07.532Z,15.77
2018-01-06T17:35:35.319Z,15.33
2018-01-06T17:38:14.693Z,17.60
2018-01-06T17:40:43.649Z,19.47
2018-01-06T17:43:11.890Z,16.67
2018-01-06T17:45:39.374Z,17.30
2018-01-06T17:48:06.856Z,16.00
2018-01-06T17:50:34.397Z,16.87
2018-01-06T17:53:02.652Z,17.53
2018-01-06T17:55:31.433Z,16.43
2018-01-06T17:57:58.998Z,17.17
2018-01-06T18:00:26.486Z,16.13
2018-01-06T18:02:55.426Z,16.73
2018-01-06T18:05:23.094Z,17.87
2018-01-06T18:07:52.202Z,17.57
2018-01-06T18:10:21.141Z,17.73
2018-01-06T18:12:50.055Z,18.73
2018-01-06T18:15:19.002Z,19.30
2018-01-06T18:17:46.671Z,18.00
2018-01-06T18:20:15.210Z,17.60
2018-01-06T18:22:46.461Z,17.97
2018-01-06T18:25:14.460Z,20.30
2018-01-06T18:27:42.075Z,17.20
2018-01-06T18:30:09.579Z,18.87
2018-01-06T18:32:37.060Z,19.60
2018-01-06T18:35:04.540Z,19.63
2018-01-06T18:37:32.074Z,20.00
2018-01-06T18:39:59.579Z,21.90
2018-01-06T18:42:27.106Z,20.37
2018-01-06T18:44:55.374Z,19.70
2018-01-06T18:47:23.617Z,21.50
2018-01-06T18:49:51.117Z,20.27
2018-01-06T18:52:18.591Z,23.37
2018-01-06T18:54:46.218Z,21.43
2018-01-06T18:57:13.718Z,22.53
2018-01-06T18:59:41.313Z,25.60
2018-01-06T19:02:08.877Z,20.70
2018-01-06T19:04:36.485Z,23.67
2018-01-06T19:07:04.802Z,23.87
2018-01-06T19:09:32.367Z,25.00
2018-01-06T19:11:59.839Z,26.63
2018-01-06T19:14:27.326Z,26.63
2018-01-06T19:16:55.698Z,23.97
2018-01-06T19:19:23.176Z,25.87
2018-01-06T19:21:51.434Z,25.60
2018-01-06T19:24:18.934Z,24.10
2018-01-06T19:26:46.457Z,25.33
2018-01-06T19:29:14.830Z,24.00
2018-01-06T19:31:42.302Z,23.40
2018-01-06T19:34:10.685Z,25.63
2018-01-06T19:36:38.940Z,24.63
2018-01-06T19:39:06.435Z,26.07
2018-01-06T19:41:34.018Z,26.07
2018-01-06T19:44:01.563Z,24.10
2018-01-06T19:46:29.083Z,20.60
2018-01-06T19:48:57.647Z,24.53
2018-01-06T19:51:25.137Z,22.93
2018-01-06T19:53:52.638Z,23.07
2018-01-06T19:56:20.318Z,23.40
2018-01-06T19:58:47.804Z,26.07
2018-01-06T20:01:16.159Z,25.53
2018-01-06T20:03:43.756Z,22.13
2018-01-06T20:06:12.087Z,24.73
2018-01-06T20:08:39.631Z,28.70
2018-01-06T20:11:07.210Z,24.80
2018-01-06T20:13:38.458Z,27.37
2018-01-06T20:16:05.951Z,24.70
2018-01-06T20:18:33.516Z,23.80
2018-01-06T20:21:01.093Z,26.07
2018-01-06T20:23:29.374Z,23.30
2018-01-06T20:25:57.652Z,23.53
2018-01-06T20:28:25.253Z,23.07
2018-01-06T20:30:52.916Z,22.77
2018-01-06T20:33:20.471Z,22.03
2018-01-06T20:35:48.030Z,21.60
2018-01-06T20:38:15.789Z,20.87
2018-01-06T20:40:43.290Z,19.40
2018-01-06T20:43:13.062Z,19.80
2018-01-06T20:45:40.735Z,20.67
2018-01-06T20:48:08.409Z,24.03
2018-01-06T20:50:36.152Z,20.30
2018-01-06T20:53:04.023Z,20.87
2018-01-06T20:55:31.984Z,21.67
2018-01-06T20:57:59.570Z,19.60
2018-01-06T21:00:27.524Z,20.27
2018-01-06T21:02:55.034Z,19.80
2018-01-06T21:05:22.541Z,21.70
2018-01-06T21:07:50.408Z,20.73
2018-01-06T21:10:17.974Z,22.40
2018-01-06T21:12:45.591Z,23.33
2018-01-06T21:15:13.832Z,23.90
2018-01-06T21:17:41.476Z,23.87
2018-01-06T21:20:09.038Z,23.67
2018-01-06T21:22:36.548Z,22.27
2018-01-06T21:25:04.056Z,24.07
2018-01-06T21:27:31.732Z,22.50
2018-01-06T21:29:59.234Z,27.43
2018-01-06T21:32:26.707Z,26.17
2018-01-06T21:34:55.000Z,26.10
2018-01-06T21:37:22.524Z,25.13
2018-01-06T21:39:50.034Z,27.87
2018-01-06T21:42:17.623Z,28.00
2018-01-06T21:44:45.170Z,26.57
2018-01-06T21:47:12.671Z,26.20
2018-01-06T21:49:40.946Z,27.07
2018-01-06T21:52:09.942Z,28.07
2018-01-06T21:54:38.199Z,26.00
2018-01-06T21:57:05.735Z,26.67
2018-01-06T21:59:33.207Z,30.47
2018-01-06T22:02:00.713Z,29.90
2018-01-06T22:04:28.955Z,28.57
2018-01-06T22:06:56.502Z,30.87
2018-01-06T22:09:23.991Z,30.07
2018-01-06T22:11:51.516Z,34.07
2018-01-06T22:14:19.010Z,32.80
2018-01-06T22:16:48.502Z,36.53
2018-01-06T22:19:16.011Z,38.03
2018-01-06T22:21:43.504Z,37.80
2018-01-06T22:24:13.350Z,41.60
2018-01-06T22:26:40.943Z,38.50
2018-01-06T22:29:08.430Z,40.43
2018-01-06T22:31:35.903Z,41.20
2018-01-06T22:34:03.388Z,40.33
2018-01-06T22:36:31.745Z,41.50
2018-01-06T22:38:59.230Z,41.60
2018-01-06T22:41:27.482Z,44.00
2018-01-06T22:43:55.056Z,45.93
2018-01-06T22:46:23.979Z,43.30
2018-01-06T22:48:51.632Z,41.70
2018-01-06T22:51:19.883Z,45.90
2018-01-06T22:53:47.363Z,47.13
2018-01-06T22:56:15.630Z,46.20
2018-01-06T22:58:43.118Z,49.90
2018-01-06T23:01:10.775Z,44.60
2018-01-06T23:03:38.278Z,45.83
2018-01-06T23:06:05.823Z,48.27
2018-01-06T23:08:33.474Z,47.07
2018-01-06T23:11:01.021Z,53.27
2018-01-06T23:13:28.528Z,51.70
2018-01-06T23:15:56.017Z,48.77
2018-01-06T23:18:24.265Z,52.40
2018-01-06T23:20:51.743Z,50.83
2018-01-06T23:23:19.240Z,51.40
2018-01-06T23:25:46.709Z,52.17
2018-01-06T23:28:14.185Z,54.87
2018-01-06T23:30:41.713Z,51.43
2018-01-06T23:33:09.355Z,54.77
2018-01-06T23:35:37.605Z,52.77
2018-01-06T23:38:05.102Z,57.00
2018-01-06T23:40:32.588Z,53.37
2018-01-06T23:43:00.073Z,54.47
2018-01-06T23:45:27.570Z,59.00
2018-01-06T23:47:55.858Z,56.50
2018-01-06T23:50:23.341Z,56.70
2018-01-06T23:52:50.853Z,59.80
2018-01-06T23:55:19.155Z,63.47
2018-01-06T23:57:46.635Z,61.60
